createdAt,value
2019-05-18T00:00:08.783Z,31.10
2019-05-18T00:02:38.285Z,30.50
2019-05-18T00:05:08.043Z,27.93
2019-05-18T00:07:36.620Z,31.90
2019-05-18T00:10:06.321Z,31.77
2019-05-18T00:12:34.826Z,31.70
2019-05-18T00:15:05.056Z,30.97
2019-05-18T00:17:33.544Z,28.83
2019-05-18T00:20:02.096Z,29.20
2019-05-18T00:22:30.645Z,27.20
2019-05-18T00:24:59.164Z,30.03
2019-05-18T00:27:27.697Z,28.17
2019-05-18T00:29:56.285Z,29.90
2019-05-18T00:32:24.812Z,27.90
2019-05-18T00:34:53.297Z,27.60
2019-05-18T00:37:22.122Z,28.53
2019-05-18T00:39:50.775Z,27.20
2019-05-18T00:42:19.261Z,30.30
2019-05-18T00:44:47.772Z,27.23
2019-05-18T00:47:16.265Z,31.30
2019-05-18T00:49:44.763Z,26.33
2019-05-18T00:52:13.298Z,27.17
2019-05-18T00:54:41.879Z,30.03
2019-05-18T00:57:10.432Z,27.87
2019-05-18T00:59:39.010Z,29.80
2019-05-18T01:02:07.575Z,31.13
2019-05-18T01:04:36.057Z,29.40
2019-05-18T01:07:04.595Z,30.40
2019-05-18T01:09:33.116Z,29.83
2019-05-18T01:12:01.598Z,32.67
2019-05-18T01:14:30.150Z,29.03
2019-05-18T01:16:58.675Z,33.03
2019-05-18T01:19:27.169Z,32.47
2019-05-18T01:21:55.894Z,29.97
2019-05-18T01:24:24.385Z,29.47
2019-05-18T01:26:52.879Z,30.00
2019-05-18T01:29:21.392Z,31.10
2019-05-18T01:31:49.900Z,28.80
2019-05-18T01:34:18.403Z,34.13
2019-05-18T01:36:46.931Z,33.77
2019-05-18T01:39:15.722Z,27.13
2019-05-18T01:41:44.207Z,28.50
2019-05-18T01:44:12.736Z,30.40
2019-05-18T01:46:41.234Z,33.90
2019-05-18T01:49:09.710Z,29.70
2019-05-18T01:51:38.246Z,28.20
2019-05-18T01:54:06.751Z,28.20
2019-05-18T01:56:35.221Z,31.80
2019-05-18T01:59:03.776Z,32.97
2019-05-18T02:01:32.262Z,29.23
2019-05-18T02:04:00.801Z,29.43
2019-05-18T02:06:29.311Z,29.07
2019-05-18T02:08:57.819Z,30.57
2019-05-18T02:11:26.310Z,26.10
2019-05-18T02:13:54.849Z,29.80
2019-05-18T02:16:23.345Z,27.00
2019-05-18T02:18:51.831Z,32.70
2019-05-18T02:21:20.356Z,31.40
2019-05-18T02:23:48.909Z,28.20
2019-05-18T02:26:17.400Z,28.50
2019-05-18T02:28:46.015Z,31.10
2019-05-18T02:31:14.489Z,31.80
2019-05-18T02:33:42.981Z,31.07
2019-05-18T02:36:11.505Z,30.10
2019-05-18T02:38:39.996Z,29.63
2019-05-18T02:41:09.704Z,31.53
2019-05-18T02:43:38.233Z,29.63
2019-05-18T02:46:06.716Z,29.60
2019-05-18T02:48:48.863Z,30.83
2019-05-18T02:51:05.471Z,31.93
2019-05-18T02:53:33.992Z,29.77
2019-05-18T02:56:02.555Z,29.80
2019-05-18T02:58:31.084Z,32.27
2019-05-18T03:00:59.581Z,31.50
2019-05-18T03:03:28.162Z,31.70
2019-05-18T03:05:56.765Z,30.53
2019-05-18T03:08:25.311Z,30.20
2019-05-18T03:10:53.880Z,34.27
2019-05-18T03:13:22.477Z,35.10
2019-05-18T03:15:51.065Z,33.73
2019-05-18T03:18:19.550Z,33.10
2019-05-18T03:20:48.061Z,30.13
2019-05-18T03:23:16.562Z,32.93
2019-05-18T03:25:45.043Z,33.77
2019-05-18T03:28:13.577Z,32.10
2019-05-18T03:30:42.386Z,31.10
2019-05-18T03:33:11.017Z,37.67
2019-05-18T03:35:39.735Z,36.37
2019-05-18T03:38:08.384Z,36.30
2019-05-18T03:40:36.928Z,32.07
2019-05-18T03:43:06.544Z,33.00
2019-05-18T03:45:35.015Z,32.77
2019-05-18T03:48:03.565Z,34.50
2019-05-18T03:50:32.121Z,31.33
2019-05-18T03:53:00.673Z,35.27
2019-05-18T03:55:29.244Z,29.63
2019-05-18T03:57:59.295Z,32.03
2019-05-18T04:00:29.503Z,34.37
2019-05-18T04:02:58.358Z,35.73
2019-05-18T04:05:26.874Z,31.00
2019-05-18T04:07:55.363Z,31.17
2019-05-18T04:10:29.175Z,31.87
2019-05-18T04:12:57.771Z,31.87
2019-05-18T04:15:26.267Z,33.20
2019-05-18T04:17:54.775Z,35.07
2019-05-18T04:20:23.310Z,34.47
2019-05-18T04:22:51.789Z,34.80
2019-05-18T04:25:20.288Z,33.60
2019-05-18T04:27:48.832Z,36.87
2019-05-18T04:30:17.392Z,35.00
2019-05-18T04:32:45.877Z,36.07
2019-05-18T04:35:14.460Z,37.93
2019-05-18T04:37:42.945Z,37.40
2019-05-18T04:40:11.778Z,34.80
2019-05-18T04:42:40.319Z,36.60
2019-05-18T04:45:09.141Z,38.17
2019-05-18T04:47:37.614Z,37.60
2019-05-18T04:50:07.794Z,36.53
2019-05-18T04:52:36.372Z,35.00
2019-05-18T04:55:05.999Z,38.73
2019-05-18T04:57:34.509Z,35.10
2019-05-18T05:00:03.485Z,39.80
2019-05-18T05:02:31.964Z,36.90
2019-05-18T05:05:00.886Z,35.80
2019-05-18T05:07:29.392Z,38.00
2019-05-18T05:09:57.867Z,37.33
2019-05-18T05:12:26.398Z,38.73
2019-05-18T05:14:54.872Z,36.17
2019-05-18T05:17:23.362Z,34.40
2019-05-18T05:19:51.884Z,35.63
2019-05-18T05:22:20.369Z,36.40
2019-05-18T05:24:48.850Z,36.13
2019-05-18T05:27:17.376Z,39.57
2019-05-18T05:29:45.870Z,37.60
2019-05-18T05:32:14.345Z,37.80
2019-05-18T05:34:42.890Z,38.03
2019-05-18T05:37:11.370Z,36.90
2019-05-18T05:39:39.854Z,38.90
2019-05-18T05:42:08.405Z,38.27
2019-05-18T05:44:36.891Z,37.43
2019-05-18T05:47:05.838Z,37.77
2019-05-18T05:49:34.378Z,38.57
2019-05-18T05:52:02.864Z,38.10
2019-05-18T05:54:31.351Z,39.17
2019-05-18T05:56:59.935Z,41.40
2019-05-18T05:59:28.420Z,38.53
2019-05-18T06:01:56.908Z,39.93
2019-05-18T06:04:25.451Z,40.50
2019-05-18T06:06:53.929Z,40.57
2019-05-18T06:09:22.439Z,39.60
2019-05-18T06:11:50.945Z,39.43
2019-05-18T06:14:19.432Z,38.37
2019-05-18T06:16:47.997Z,40.30
2019-05-18T06:19:16.600Z,40.57
2019-05-18T06:21:45.090Z,40.70
2019-05-18T06:24:13.592Z,39.93
2019-05-18T06:26:42.090Z,41.60
2019-05-18T06:29:10.646Z,41.83
2019-05-18T06:31:39.151Z,41.10
2019-05-18T06:34:07.696Z,42.27
2019-05-18T06:36:36.192Z,39.73
2019-05-18T06:39:06.676Z,42.23
2019-05-18T06:41:35.265Z,41.27
2019-05-18T06:44:04.403Z,41.57
2019-05-18T06:46:33.009Z,40.50
2019-05-18T06:49:02.544Z,41.70
2019-05-18T06:51:31.025Z,42.40
2019-05-18T06:53:59.512Z,43.13
2019-05-18T06:56:28.246Z,41.73
2019-05-18T06:58:57.620Z,40.80
2019-05-18T07:01:26.099Z,41.67
2019-05-18T07:03:54.625Z,42.60
2019-05-18T07:06:23.113Z,43.27
2019-05-18T07:08:51.604Z,45.43
2019-05-18T07:11:20.192Z,41.97
2019-05-18T07:13:48.680Z,41.90
2019-05-18T07:16:17.384Z,45.30
2019-05-18T07:18:45.914Z,40.80
2019-05-18T07:21:21.969Z,41.67
2019-05-18T07:23:44.606Z,42.60
2019-05-18T07:26:13.155Z,44.63
2019-05-18T07:28:41.641Z,43.70
2019-05-18T07:31:10.505Z,40.50
2019-05-18T07:33:39.065Z,44.87
2019-05-18T07:36:07.546Z,44.50
2019-05-18T07:38:36.035Z,41.87
2019-05-18T07:41:04.548Z,44.70
2019-05-18T07:43:33.025Z,42.87
2019-05-18T07:46:01.521Z,41.13
2019-05-18T07:48:30.038Z,43.60
2019-05-18T07:50:58.718Z,42.30
2019-05-18T07:53:27.226Z,41.00
2019-05-18T07:55:55.806Z,41.17
2019-05-18T07:58:24.293Z,41.50
2019-05-18T08:00:52.790Z,45.70
2019-05-18T08:03:21.346Z,43.40
2019-05-18T08:05:49.883Z,39.50
2019-05-18T08:08:18.384Z,43.17
2019-05-18T08:10:46.937Z,38.80
2019-05-18T08:13:15.439Z,39.63
2019-05-18T08:15:43.928Z,40.50
2019-05-18T08:18:12.639Z,38.87
2019-05-18T08:20:41.169Z,40.00
2019-05-18T08:23:09.676Z,38.90
2019-05-18T08:25:38.210Z,37.67
2019-05-18T08:28:06.685Z,35.03
2019-05-18T08:30:35.161Z,34.43
2019-05-18T08:33:03.697Z,35.63
2019-05-18T08:35:32.187Z,32.80
2019-05-18T08:38:00.671Z,33.37
2019-05-18T08:40:29.206Z,29.57
2019-05-18T08:42:57.717Z,34.10
2019-05-18T08:45:26.211Z,34.40
2019-05-18T08:47:54.800Z,27.43
2019-05-18T08:50:23.293Z,27.70
2019-05-18T08:52:52.181Z,32.57
2019-05-18T08:55:20.708Z,20.30
2019-05-18T08:57:49.216Z,23.40
2019-05-18T09:00:17.779Z,26.10
2019-05-18T09:02:46.301Z,28.03
2019-05-18T09:05:15.066Z,24.53
2019-05-18T09:07:43.537Z,24.43
2019-05-18T09:10:12.229Z,22.20
2019-05-18T09:12:40.712Z,20.60
2019-05-18T09:15:09.343Z,20.87
2019-05-18T09:17:37.888Z,22.50
2019-05-18T09:20:07.308Z,20.00
2019-05-18T09:22:35.796Z,23.47
2019-05-18T09:25:06.501Z,25.20
2019-05-18T09:27:34.989Z,23.20
2019-05-18T09:30:04.368Z,24.43
2019-05-18T09:32:32.925Z,25.03
2019-05-18T09:35:01.456Z,25.03
2019-05-18T09:37:29.977Z,24.50
2019-05-18T09:39:58.526Z,25.40
2019-05-18T09:42:27.012Z,24.23
2019-05-18T09:44:55.499Z,24.37
2019-05-18T09:47:24.059Z,25.30
2019-05-18T09:49:52.544Z,25.23
2019-05-18T09:52:21.033Z,23.60
2019-05-18T09:54:50.949Z,23.47
2019-05-18T09:57:19.434Z,23.73
2019-05-18T09:59:47.915Z,21.97
2019-05-18T10:02:16.482Z,23.87
2019-05-18T10:04:45.081Z,22.50
2019-05-18T10:07:13.572Z,20.73
2019-05-18T10:09:42.112Z,20.13
2019-05-18T10:12:10.582Z,19.50
2019-05-18T10:14:39.069Z,19.67
2019-05-18T10:17:07.610Z,20.50
2019-05-18T10:19:36.121Z,19.90
2019-05-18T10:22:04.615Z,19.07
2019-05-18T10:24:33.142Z,19.83
2019-05-18T10:27:01.639Z,16.90
2019-05-18T10:29:30.128Z,16.70
2019-05-18T10:31:58.679Z,17.50
2019-05-18T10:34:27.149Z,18.17
2019-05-18T10:36:55.631Z,12.80
2019-05-18T10:39:24.188Z,13.93
2019-05-18T10:41:52.677Z,13.03
2019-05-18T10:44:21.167Z,14.33
2019-05-18T10:46:49.685Z,14.33
2019-05-18T10:49:18.169Z,12.00
2019-05-18T10:51:46.658Z,12.23
2019-05-18T10:54:15.175Z,13.23
2019-05-18T10:56:44.028Z,11.07
2019-05-18T10:59:12.508Z,13.87
2019-05-18T11:01:43.843Z,12.70
2019-05-18T11:04:11.268Z,12.50
2019-05-18T11:06:39.738Z,12.47
2019-05-18T11:09:08.306Z,13.13
2019-05-18T11:11:36.945Z,11.73
2019-05-18T11:14:05.493Z,12.30
2019-05-18T11:16:34.034Z,10.10
2019-05-18T11:19:02.521Z,12.30
2019-05-18T11:21:31.002Z,11.40
2019-05-18T11:23:59.508Z,12.87
2019-05-18T11:26:27.988Z,12.90
2019-05-18T11:28:56.491Z,11.50
2019-05-18T11:31:25.154Z,13.70
2019-05-18T11:33:53.662Z,12.37
2019-05-18T11:36:22.208Z,13.17
2019-05-18T11:38:50.762Z,13.03
2019-05-18T11:41:19.249Z,12.03
2019-05-18T11:43:47.730Z,9.77
2019-05-18T11:46:16.264Z,8.87
2019-05-18T11:48:44.744Z,10.47
2019-05-18T11:51:13.235Z,11.10
2019-05-18T11:53:41.772Z,12.37
2019-05-18T11:56:10.262Z,13.20
2019-05-18T11:58:39.818Z,11.70
2019-05-18T12:01:08.339Z,11.00
2019-05-18T12:03:36.826Z,14.30
2019-05-18T12:06:05.483Z,12.37
2019-05-18T12:08:34.019Z,12.60
2019-05-18T12:11:02.497Z,11.47
2019-05-18T12:13:30.983Z,12.20
2019-05-18T12:15:59.571Z,12.10
2019-05-18T12:18:28.050Z,10.30
2019-05-18T12:20:56.536Z,11.23
2019-05-18T12:23:25.066Z,11.00
2019-05-18T12:25:53.569Z,11.40
2019-05-18T12:28:22.066Z,10.97
2019-05-18T12:30:50.602Z,10.53
2019-05-18T12:33:19.086Z,10.60
2019-05-18T12:35:47.585Z,11.60
2019-05-18T12:38:16.093Z,10.40
2019-05-18T12:40:44.582Z,8.93
2019-05-18T12:43:13.120Z,7.60
2019-05-18T12:45:41.683Z,8.73
2019-05-18T12:48:10.237Z,16.73
2019-05-18T12:50:38.733Z,18.10
2019-05-18T12:53:07.256Z,13.97
2019-05-18T12:55:35.753Z,20.33
2019-05-18T12:58:04.236Z,19.20
2019-05-18T13:00:33.909Z,19.20
2019-05-18T13:03:02.454Z,19.30
2019-05-18T13:05:30.916Z,18.60
2019-05-18T13:07:59.451Z,18.70
2019-05-18T13:10:28.001Z,21.30
2019-05-18T13:12:56.483Z,23.77
2019-05-18T13:15:25.083Z,21.07
2019-05-18T13:17:53.570Z,20.60
2019-05-18T13:20:22.198Z,19.80
2019-05-18T13:22:50.882Z,20.30
2019-05-18T13:25:19.693Z,18.10
2019-05-18T13:27:48.245Z,18.47
2019-05-18T13:30:19.950Z,22.00
2019-05-18T13:32:47.443Z,21.43
2019-05-18T13:35:16.270Z,20.90
2019-05-18T13:37:44.802Z,22.70
2019-05-18T13:40:13.757Z,22.47
2019-05-18T13:42:42.241Z,22.23
2019-05-18T13:45:11.437Z,22.97
2019-05-18T13:47:39.930Z,23.50
2019-05-18T13:50:10.351Z,22.70
2019-05-18T13:52:38.915Z,25.20
2019-05-18T13:55:07.544Z,23.93
2019-05-18T13:57:36.240Z,24.47
2019-05-18T14:00:08.345Z,20.57
2019-05-18T14:02:37.977Z,21.47
2019-05-18T14:05:07.100Z,19.40
2019-05-18T14:07:35.697Z,19.07
2019-05-18T14:10:06.515Z,19.77
2019-05-18T14:12:35.004Z,18.90
2019-05-18T14:15:04.421Z,21.13
2019-05-18T14:17:32.898Z,22.10
2019-05-18T14:20:01.378Z,21.07
2019-05-18T14:22:29.911Z,17.50
2019-05-18T14:24:58.407Z,17.97
2019-05-18T14:27:26.926Z,14.30
2019-05-18T14:29:55.464Z,18.70
2019-05-18T14:32:23.929Z,17.43
2019-05-18T14:34:52.407Z,19.53
2019-05-18T14:37:20.944Z,20.23
2019-05-18T14:39:49.425Z,18.43
2019-05-18T14:42:17.907Z,18.87
2019-05-18T14:44:46.428Z,19.30
2019-05-18T14:47:15.075Z,19.00
2019-05-18T14:49:43.602Z,19.90
2019-05-18T14:52:12.465Z,18.03
2019-05-18T14:54:41.119Z,19.67
2019-05-18T14:57:09.593Z,18.60
2019-05-18T14:59:38.134Z,16.63
2019-05-18T15:02:06.616Z,19.60
2019-05-18T15:04:35.389Z,16.43
2019-05-18T15:07:03.980Z,16.83
2019-05-18T15:09:32.463Z,16.50
2019-05-18T15:12:00.959Z,17.37
2019-05-18T15:14:29.489Z,17.10
2019-05-18T15:16:59.588Z,18.30
2019-05-18T15:19:28.745Z,18.17
2019-05-18T15:21:57.301Z,20.03
2019-05-18T15:24:25.796Z,20.60
2019-05-18T15:26:54.311Z,22.40
2019-05-18T15:29:22.815Z,19.80
2019-05-18T15:31:51.311Z,17.60
2019-05-18T15:34:19.859Z,19.77
2019-05-18T15:36:48.357Z,19.50
2019-05-18T15:39:16.865Z,18.87
2019-05-18T15:41:45.387Z,22.60
2019-05-18T15:44:13.881Z,20.70
2019-05-18T15:46:42.362Z,21.63
2019-05-18T15:49:10.932Z,19.90
2019-05-18T15:51:39.467Z,19.63
2019-05-18T15:54:08.138Z,21.53
2019-05-18T15:56:36.665Z,21.77
2019-05-18T15:59:05.167Z,21.27
2019-05-18T16:01:33.651Z,21.23
2019-05-18T16:04:02.197Z,20.60
2019-05-18T16:06:31.876Z,21.00
2019-05-18T16:09:00.372Z,21.10
2019-05-18T16:11:29.065Z,21.53
2019-05-18T16:13:57.556Z,20.47
2019-05-18T16:16:26.036Z,21.00
2019-05-18T16:18:54.566Z,19.10
2019-05-18T16:21:23.059Z,23.77
2019-05-18T16:23:51.537Z,23.27
2019-05-18T16:26:21.924Z,24.20
2019-05-18T16:28:50.396Z,25.03
2019-05-18T16:31:18.834Z,23.17
2019-05-18T16:33:47.501Z,23.10
2019-05-18T16:36:16.015Z,21.83
2019-05-18T16:38:44.535Z,21.50
2019-05-18T16:41:13.105Z,21.43
2019-05-18T16:43:41.592Z,22.57
2019-05-18T16:46:10.075Z,19.57
2019-05-18T16:48:39.488Z,17.50
2019-05-18T16:51:08.192Z,24.03
2019-05-18T16:53:36.775Z,22.90
2019-05-18T16:56:05.363Z,23.37
2019-05-18T16:58:33.842Z,24.40
2019-05-18T17:01:02.400Z,25.17
2019-05-18T17:03:30.954Z,23.43
2019-05-18T17:05:59.443Z,23.93
2019-05-18T17:08:28.712Z,24.43
2019-05-18T17:10:57.234Z,24.10
2019-05-18T17:13:25.735Z,22.60
2019-05-18T17:15:54.207Z,23.13
2019-05-18T17:18:22.735Z,24.10
2019-05-18T17:20:51.216Z,22.67
2019-05-18T17:23:19.784Z,22.70
2019-05-18T17:25:48.330Z,21.87
2019-05-18T17:28:19.441Z,23.77
2019-05-18T17:30:47.939Z,23.30
2019-05-18T17:33:16.452Z,23.90
2019-05-18T17:35:59.414Z,23.90
2019-05-18T17:38:15.824Z,23.30
2019-05-18T17:40:45.645Z,23.90
2019-05-18T17:43:14.152Z,27.47
2019-05-18T17:45:42.651Z,25.60
2019-05-18T17:48:11.171Z,24.57
2019-05-18T17:50:39.664Z,24.50
2019-05-18T17:53:08.249Z,27.00
2019-05-18T17:55:36.969Z,26.60
2019-05-18T17:58:05.703Z,26.63
2019-05-18T18:00:34.201Z,25.93
2019-05-18T18:03:02.770Z,27.43
2019-05-18T18:05:31.288Z,26.60
2019-05-18T18:07:59.846Z,27.57
2019-05-18T18:10:28.373Z,25.73
2019-05-18T18:12:56.857Z,25.27
2019-05-18T18:15:25.411Z,26.43
2019-05-18T18:17:53.990Z,27.33
2019-05-18T18:20:22.619Z,26.17
2019-05-18T18:22:51.111Z,26.77
2019-05-18T18:25:19.757Z,25.60
2019-05-18T18:27:48.222Z,24.60
2019-05-18T18:30:17.115Z,24.27
2019-05-18T18:32:45.678Z,28.00
2019-05-18T18:35:14.315Z,24.80
2019-05-18T18:37:43.166Z,23.70
2019-05-18T18:40:13.909Z,25.90
2019-05-18T18:42:42.404Z,25.10
2019-05-18T18:45:11.140Z,25.60
2019-05-18T18:47:39.649Z,25.60
2019-05-18T18:50:09.103Z,25.40
2019-05-18T18:52:37.666Z,24.67
2019-05-18T18:55:09.297Z,25.43
2019-05-18T18:57:41.763Z,25.27
2019-05-18T19:00:08.753Z,26.10
2019-05-18T19:02:37.291Z,23.60
2019-05-18T19:05:07.498Z,22.37
2019-05-18T19:07:35.998Z,23.60
2019-05-18T19:10:05.645Z,23.83
2019-05-18T19:12:34.378Z,22.73
2019-05-18T19:15:05.153Z,23.13
2019-05-18T19:17:33.703Z,21.63
2019-05-18T19:20:02.197Z,22.43
2019-05-18T19:22:30.688Z,21.97
2019-05-18T19:24:59.217Z,21.50
2019-05-18T19:27:27.706Z,22.30
2019-05-18T19:29:56.189Z,22.40
2019-05-18T19:32:24.711Z,22.73
2019-05-18T19:34:53.229Z,23.40
2019-05-18T19:37:21.751Z,23.77
2019-05-18T19:39:50.293Z,23.90
2019-05-18T19:42:18.790Z,21.53
2019-05-18T19:44:47.315Z,22.57
2019-05-18T19:47:16.093Z,22.00
2019-05-18T19:49:44.595Z,22.00
2019-05-18T19:52:13.121Z,19.30
2019-05-18T19:54:41.748Z,23.07
2019-05-18T19:57:10.260Z,22.00
2019-05-18T19:59:38.814Z,22.17
2019-05-18T20:02:07.430Z,21.80
2019-05-18T20:04:35.909Z,22.83
2019-05-18T20:07:04.395Z,23.30
2019-05-18T20:09:32.973Z,25.63
2019-05-18T20:12:01.846Z,21.57
2019-05-18T20:14:30.369Z,22.97
2019-05-18T20:16:58.916Z,21.50
2019-05-18T20:19:38.596Z,21.83
2019-05-18T20:21:57.615Z,21.63
2019-05-18T20:24:26.160Z,23.47
2019-05-18T20:26:54.661Z,23.57
2019-05-18T20:29:23.149Z,22.97
2019-05-18T20:31:51.685Z,23.00
2019-05-18T20:34:20.180Z,24.27
2019-05-18T20:36:48.671Z,23.70
2019-05-18T20:39:17.263Z,26.57
2019-05-18T20:41:45.762Z,23.57
2019-05-18T20:44:14.247Z,25.10
2019-05-18T20:46:42.769Z,21.93
2019-05-18T20:49:11.273Z,25.50
2019-05-18T20:51:39.761Z,25.10
2019-05-18T20:54:08.364Z,25.97
2019-05-18T20:56:36.843Z,26.67
2019-05-18T20:59:05.393Z,26.83
2019-05-18T21:01:33.926Z,25.77
2019-05-18T21:04:02.429Z,24.70
2019-05-18T21:06:30.906Z,25.00
2019-05-18T21:08:59.445Z,26.17
2019-05-18T21:11:27.932Z,26.53
2019-05-18T21:13:58.309Z,24.20
2019-05-18T21:16:26.794Z,25.97
2019-05-18T21:18:55.287Z,26.50
2019-05-18T21:21:25.863Z,24.43
2019-05-18T21:23:54.088Z,24.43
2019-05-18T21:26:22.571Z,26.27
2019-05-18T21:28:56.421Z,26.40
2019-05-18T21:31:21.314Z,26.20
2019-05-18T21:33:49.982Z,27.40
2019-05-18T21:36:18.512Z,27.97
2019-05-18T21:38:46.997Z,22.70
2019-05-18T21:41:15.483Z,27.10
2019-05-18T21:43:44.024Z,30.80
2019-05-18T21:46:12.505Z,29.40
2019-05-18T21:48:40.987Z,26.60
2019-05-18T21:51:09.502Z,28.93
2019-05-18T21:53:37.997Z,28.60
2019-05-18T21:56:06.491Z,29.10
2019-05-18T21:58:35.031Z,28.27
2019-05-18T22:01:03.594Z,29.67
2019-05-18T22:03:32.123Z,29.57
2019-05-18T22:06:00.644Z,28.43
2019-05-18T22:08:29.130Z,30.57
2019-05-18T22:10:57.616Z,28.47
2019-05-18T22:13:26.313Z,30.57
2019-05-18T22:15:55.832Z,28.80
2019-05-18T22:18:25.070Z,29.20
2019-05-18T22:20:53.765Z,35.27
2019-05-18T22:23:22.244Z,49.40
2019-05-18T22:25:50.725Z,81.67
2019-05-18T22:28:19.268Z,89.57
2019-05-18T22:30:47.748Z,54.10
2019-05-18T22:33:16.229Z,38.93
2019-05-18T22:35:44.743Z,35.93
2019-05-18T22:38:13.236Z,33.10
2019-05-18T22:40:41.729Z,31.30
2019-05-18T22:43:10.281Z,32.43
2019-05-18T22:45:38.755Z,27.40
2019-05-18T22:48:07.248Z,28.93
2019-05-18T22:50:35.969Z,27.10
2019-05-18T22:53:04.421Z,31.80
2019-05-18T22:55:32.904Z,32.47
2019-05-18T22:58:01.450Z,26.93
2019-05-18T23:00:29.937Z,30.33
2019-05-18T23:02:58.413Z,29.03
2019-05-18T23:05:26.938Z,27.93
2019-05-18T23:07:55.417Z,27.53
2019-05-18T23:10:23.904Z,28.17
2019-05-18T23:12:52.449Z,28.70
2019-05-18T23:15:20.996Z,27.00
2019-05-18T23:17:49.748Z,25.23
2019-05-18T23:20:18.361Z,25.53
2019-05-18T23:22:46.859Z,26.17
2019-05-18T23:25:15.513Z,24.20
2019-05-18T23:27:44.093Z,26.77
2019-05-18T23:30:12.603Z,25.90
2019-05-18T23:32:41.081Z,27.67
2019-05-18T23:35:09.684Z,26.70
2019-05-18T23:37:38.191Z,25.80
2019-05-18T23:40:07.192Z,25.77
2019-05-18T23:42:35.707Z,25.00
2019-05-18T23:45:08.007Z,23.50
2019-05-18T23:47:36.506Z,28.27
2019-05-18T23:50:05.786Z,24.40
2019-05-18T23:52:34.268Z,25.30
2019-05-18T23:55:02.842Z,26.40
2019-05-18T23:57:31.373Z,26.83
2019-05-18T23:59:59.843Z,25.17
